Decoded Metar for EPRA ( in _UNIDENTIFIED) (IATA:) | Meteo·Mobile Aviation Weather
aviador You're here:

EPRA Decoded Metar

in _UNIDENTIFIED
Report Time2018-12-11 09:30:00
UTC Time2018-12-11 09:40:12
Flight Rules vfr VFR
Wind200° at 06 kt
W.Decomp.*RWY 25: 3.5 kt HW 4.9 kt LCW
W.Rank200° ranks 25
Current wind is below 200° avg. (6.1)
Visibility9999 m
Phenomena:N/A
Clouds:Scattered 014 Hf
CeilingNone
Temp02°C (ISA -12)
Dew Point02°C (100% RH)
AAT-1.8°C
QNH1009 hPa
Density Alt-620 ft
Elevation584 ft
Report Wrong Elevation
Raw Report
METAR EPRA 110930Z 20006KT 9999 SCT014 02/02 Q1009=

Extra information for EPRA:More info

Metar Taf Metar & Taf Last 4 Metars F.Rules Stats Wind Profile Meteogram Temp Stats Metar ALERT Operation Metar Decoded Social comments